sensor_id;sensor_type;location;lat;lon;timestamp;temperature;humidity
81524;DHT22;70954;49.500;10.416;2023-09-08T00:01:11;19.50;55.40
81524;DHT22;70954;49.500;10.416;2023-09-08T00:03:36;19.40;55.50
81524;DHT22;70954;49.500;10.416;2023-09-08T00:06:02;19.40;55.50
81524;DHT22;70954;49.500;10.416;2023-09-08T00:08:27;19.40;55.60
81524;DHT22;70954;49.500;10.416;2023-09-08T00:10:53;19.40;55.60
81524;DHT22;70954;49.500;10.416;2023-09-08T00:13:18;19.40;55.60
81524;DHT22;70954;49.500;10.416;2023-09-08T00:15:44;19.30;55.60
81524;DHT22;70954;49.500;10.416;2023-09-08T00:18:09;19.30;55.70
81524;DHT22;70954;49.500;10.416;2023-09-08T00:20:35;19.30;55.70
81524;DHT22;70954;49.500;10.416;2023-09-08T00:23:00;19.20;55.80
81524;DHT22;70954;49.500;10.416;2023-09-08T00:25:25;19.20;55.90
81524;DHT22;70954;49.500;10.416;2023-09-08T00:27:51;19.20;55.90
81524;DHT22;70954;49.500;10.416;2023-09-08T00:30:16;19.10;56.00
81524;DHT22;70954;49.500;10.416;2023-09-08T00:32:42;19.10;56.00
81524;DHT22;70954;49.500;10.416;2023-09-08T00:35:10;19.10;56.00
81524;DHT22;70954;49.500;10.416;2023-09-08T00:37:36;19.00;56.10
81524;DHT22;70954;49.500;10.416;2023-09-08T00:40:01;19.00;56.10
81524;DHT22;70954;49.500;10.416;2023-09-08T00:42:26;19.00;56.20
81524;DHT22;70954;49.500;10.416;2023-09-08T00:44:52;18.90;56.20
81524;DHT22;70954;49.500;10.416;2023-09-08T00:47:17;18.90;56.20
81524;DHT22;70954;49.500;10.416;2023-09-08T00:49:43;18.90;56.20
81524;DHT22;70954;49.500;10.416;2023-09-08T00:52:08;18.80;56.30
81524;DHT22;70954;49.500;10.416;2023-09-08T00:54:34;18.80;56.40
81524;DHT22;70954;49.500;10.416;2023-09-08T00:57:01;18.70;56.40
81524;DHT22;70954;49.500;10.416;2023-09-08T00:59:27;18.70;56.40
81524;DHT22;70954;49.500;10.416;2023-09-08T01:01:53;18.70;56.50
81524;DHT22;70954;49.500;10.416;2023-09-08T01:04:20;18.60;56.60
81524;DHT22;70954;49.500;10.416;2023-09-08T01:06:46;18.60;56.60
81524;DHT22;70954;49.500;10.416;2023-09-08T01:09:11;18.50;56.60
81524;DHT22;70954;49.500;10.416;2023-09-08T01:11:37;18.50;56.60
81524;DHT22;70954;49.500;10.416;2023-09-08T01:14:03;18.40;56.60
81524;DHT22;70954;49.500;10.416;2023-09-08T01:16:28;18.40;56.60
81524;DHT22;70954;49.500;10.416;2023-09-08T01:18:54;18.30;56.70
81524;DHT22;70954;49.500;10.416;2023-09-08T01:26:42;18.20;57.40
81524;DHT22;70954;49.500;10.416;2023-09-08T01:29:09;18.10;57.00
81524;DHT22;70954;49.500;10.416;2023-09-08T01:31:36;18.10;57.10
81524;DHT22;70954;49.500;10.416;2023-09-08T01:34:02;18.00;57.10
81524;DHT22;70954;49.500;10.416;2023-09-08T01:36:27;18.00;57.20
81524;DHT22;70954;49.500;10.416;2023-09-08T01:38:53;18.00;57.20
81524;DHT22;70954;49.500;10.416;2023-09-08T01:41:18;17.90;57.40
81524;DHT22;70954;49.500;10.416;2023-09-08T01:43:44;17.80;57.50
81524;DHT22;70954;49.500;10.416;2023-09-08T01:46:09;17.80;57.60
81524;DHT22;70954;49.500;10.416;2023-09-08T01:48:34;17.80;57.60
81524;DHT22;70954;49.500;10.416;2023-09-08T01:51:00;17.80;57.70
81524;DHT22;70954;49.500;10.416;2023-09-08T01:53:25;17.70;57.80
81524;DHT22;70954;49.500;10.416;2023-09-08T01:55:51;17.60;57.90
81524;DHT22;70954;49.500;10.416;2023-09-08T01:58:17;17.60;58.00
81524;DHT22;70954;49.500;10.416;2023-09-08T02:00:42;17.60;58.00
81524;DHT22;70954;49.500;10.416;2023-09-08T02:03:08;17.60;58.10
81524;DHT22;70954;49.500;10.416;2023-09-08T02:05:33;17.50;58.20
81524;DHT22;70954;49.500;10.416;2023-09-08T02:07:58;17.50;58.20
81524;DHT22;70954;49.500;10.416;2023-09-08T02:10:24;17.50;58.30
81524;DHT22;70954;49.500;10.416;2023-09-08T02:12:49;17.50;58.30
81524;DHT22;70954;49.500;10.416;2023-09-08T02:15:15;17.50;58.40
81524;DHT22;70954;49.500;10.416;2023-09-08T02:17:40;17.50;58.50
81524;DHT22;70954;49.500;10.416;2023-09-08T02:20:06;17.40;58.50
81524;DHT22;70954;49.500;10.416;2023-09-08T02:22:32;17.40;58.50
81524;DHT22;70954;49.500;10.416;2023-09-08T02:24:57;17.40;58.60
81524;DHT22;70954;49.500;10.416;2023-09-08T02:27:23;17.40;58.60
81524;DHT22;70954;49.500;10.416;2023-09-08T02:29:48;17.30;58.60
81524;DHT22;70954;49.500;10.416;2023-09-08T02:32:13;17.30;58.50
81524;DHT22;70954;49.500;10.416;2023-09-08T02:34:39;17.20;58.60
81524;DHT22;70954;49.500;10.416;2023-09-08T02:37:04;17.20;58.60
81524;DHT22;70954;49.500;10.416;2023-09-08T02:39:30;17.20;58.60
81524;DHT22;70954;49.500;10.416;2023-09-08T02:41:55;17.20;58.70
81524;DHT22;70954;49.500;10.416;2023-09-08T02:44:21;17.20;58.60
81524;DHT22;70954;49.500;10.416;2023-09-08T02:46:46;17.20;58.70
81524;DHT22;70954;49.500;10.416;2023-09-08T02:49:12;17.10;58.70
81524;DHT22;70954;49.500;10.416;2023-09-08T02:51:37;17.00;58.70
81524;DHT22;70954;49.500;10.416;2023-09-08T02:54:03;17.00;58.70
81524;DHT22;70954;49.500;10.416;2023-09-08T02:56:28;17.00;58.70
81524;DHT22;70954;49.500;10.416;2023-09-08T02:58:54;17.00;58.70
81524;DHT22;70954;49.500;10.416;2023-09-08T03:01:19;17.00;58.70
81524;DHT22;70954;49.500;10.416;2023-09-08T03:03:45;16.90;58.80
81524;DHT22;70954;49.500;10.416;2023-09-08T03:06:10;16.90;58.80
81524;DHT22;70954;49.500;10.416;2023-09-08T03:08:37;16.90;58.80
81524;DHT22;70954;49.500;10.416;2023-09-08T03:11:03;16.80;58.90
81524;DHT22;70954;49.500;10.416;2023-09-08T03:13:28;16.80;59.00
81524;DHT22;70954;49.500;10.416;2023-09-08T03:15:54;16.80;59.00
81524;DHT22;70954;49.500;10.416;2023-09-08T03:18:20;16.70;59.00
81524;DHT22;70954;49.500;10.416;2023-09-08T03:20:49;16.70;59.10
81524;DHT22;70954;49.500;10.416;2023-09-08T03:23:15;16.70;59.10
81524;DHT22;70954;49.500;10.416;2023-09-08T03:25:41;16.60;59.20
81524;DHT22;70954;49.500;10.416;2023-09-08T03:28:07;16.60;59.30
81524;DHT22;70954;49.500;10.416;2023-09-08T03:30:32;16.60;59.40
81524;DHT22;70954;49.500;10.416;2023-09-08T03:32:58;16.60;59.50
81524;DHT22;70954;49.500;10.416;2023-09-08T03:35:23;16.50;59.60
81524;DHT22;70954;49.500;10.416;2023-09-08T03:37:49;16.50;59.50
81524;DHT22;70954;49.500;10.416;2023-09-08T03:40:14;16.50;59.50
81524;DHT22;70954;49.500;10.416;2023-09-08T03:42:40;16.50;59.50
81524;DHT22;70954;49.500;10.416;2023-09-08T03:45:05;16.50;59.60
81524;DHT22;70954;49.500;10.416;2023-09-08T03:47:31;16.40;59.70
81524;DHT22;70954;49.500;10.416;2023-09-08T03:49:56;16.40;59.70
81524;DHT22;70954;49.500;10.416;2023-09-08T03:52:22;16.40;59.60
81524;DHT22;70954;49.500;10.416;2023-09-08T03:54:47;16.40;59.70
81524;DHT22;70954;49.500;10.416;2023-09-08T03:57:13;16.40;59.70
81524;DHT22;70954;49.500;10.416;2023-09-08T03:59:38;16.30;59.80
81524;DHT22;70954;49.500;10.416;2023-09-08T04:02:04;16.30;59.80
81524;DHT22;70954;49.500;10.416;2023-09-08T04:04:29;16.30;59.80
81524;DHT22;70954;49.500;10.416;2023-09-08T04:06:55;16.20;59.90
81524;DHT22;70954;49.500;10.416;2023-09-08T04:09:20;16.20;60.00
81524;DHT22;70954;49.500;10.416;2023-09-08T04:11:46;16.20;60.00
81524;DHT22;70954;49.500;10.416;2023-09-08T04:14:11;16.20;60.10
81524;DHT22;70954;49.500;10.416;2023-09-08T04:16:37;16.20;60.10
81524;DHT22;70954;49.500;10.416;2023-09-08T04:19:02;16.10;60.10
81524;DHT22;70954;49.500;10.416;2023-09-08T04:21:28;16.10;60.10
81524;DHT22;70954;49.500;10.416;2023-09-08T04:23:53;16.10;60.20
81524;DHT22;70954;49.500;10.416;2023-09-08T04:26:18;16.10;60.30
81524;DHT22;70954;49.500;10.416;2023-09-08T04:28:44;16.00;60.30
81524;DHT22;70954;49.500;10.416;2023-09-08T04:31:09;16.00;60.40
81524;DHT22;70954;49.500;10.416;2023-09-08T04:33:35;16.00;60.40
81524;DHT22;70954;49.500;10.416;2023-09-08T04:36:00;16.00;60.50
81524;DHT22;70954;49.500;10.416;2023-09-08T04:38:26;16.00;60.40
81524;DHT22;70954;49.500;10.416;2023-09-08T04:40:51;16.00;60.50
81524;DHT22;70954;49.500;10.416;2023-09-08T04:43:16;16.00;60.50
81524;DHT22;70954;49.500;10.416;2023-09-08T04:45:42;16.00;60.50
81524;DHT22;70954;49.500;10.416;2023-09-08T04:48:07;15.90;60.60
81524;DHT22;70954;49.500;10.416;2023-09-08T04:50:33;15.90;60.60
81524;DHT22;70954;49.500;10.416;2023-09-08T04:52:59;15.90;60.70
81524;DHT22;70954;49.500;10.416;2023-09-08T04:55:24;15.90;60.70
81524;DHT22;70954;49.500;10.416;2023-09-08T04:57:49;15.80;60.70
81524;DHT22;70954;49.500;10.416;2023-09-08T05:00:15;15.80;60.70
81524;DHT22;70954;49.500;10.416;2023-09-08T05:02:41;15.80;60.60
81524;DHT22;70954;49.500;10.416;2023-09-08T05:05:07;15.80;60.70
81524;DHT22;70954;49.500;10.416;2023-09-08T05:07:32;15.80;60.70
81524;DHT22;70954;49.500;10.416;2023-09-08T05:09:58;15.80;60.80
81524;DHT22;70954;49.500;10.416;2023-09-08T05:12:23;15.80;60.80
81524;DHT22;70954;49.500;10.416;2023-09-08T05:14:49;15.70;60.80
81524;DHT22;70954;49.500;10.416;2023-09-08T05:17:14;15.70;60.90
81524;DHT22;70954;49.500;10.416;2023-09-08T05:19:39;15.70;60.90
81524;DHT22;70954;49.500;10.416;2023-09-08T05:22:06;15.70;61.00
81524;DHT22;70954;49.500;10.416;2023-09-08T05:24:31;15.70;61.10
81524;DHT22;70954;49.500;10.416;2023-09-08T05:26:57;15.60;61.10
81524;DHT22;70954;49.500;10.416;2023-09-08T05:29:22;15.60;61.20
81524;DHT22;70954;49.500;10.416;2023-09-08T05:31:47;15.60;61.40
81524;DHT22;70954;49.500;10.416;2023-09-08T05:34:13;15.60;61.50
81524;DHT22;70954;49.500;10.416;2023-09-08T05:36:38;15.60;61.60
81524;DHT22;70954;49.500;10.416;2023-09-08T05:39:04;15.60;61.70
81524;DHT22;70954;49.500;10.416;2023-09-08T05:41:29;15.60;61.80
81524;DHT22;70954;49.500;10.416;2023-09-08T05:43:55;15.60;61.90
81524;DHT22;70954;49.500;10.416;2023-09-08T05:46:20;15.60;62.00
81524;DHT22;70954;49.500;10.416;2023-09-08T05:48:46;15.70;62.20
81524;DHT22;70954;49.500;10.416;2023-09-08T05:51:11;15.70;62.30
81524;DHT22;70954;49.500;10.416;2023-09-08T05:53:37;15.80;62.40
81524;DHT22;70954;49.500;10.416;2023-09-08T05:56:02;15.80;62.50
81524;DHT22;70954;49.500;10.416;2023-09-08T05:58:28;15.80;62.60
81524;DHT22;70954;49.500;10.416;2023-09-08T06:00:54;15.80;62.60
81524;DHT22;70954;49.500;10.416;2023-09-08T06:03:19;15.80;62.70
81524;DHT22;70954;49.500;10.416;2023-09-08T06:05:45;15.80;62.80
81524;DHT22;70954;49.500;10.416;2023-09-08T06:08:10;15.90;62.90
81524;DHT22;70954;49.500;10.416;2023-09-08T06:10:37;16.00;63.00
81524;DHT22;70954;49.500;10.416;2023-09-08T06:13:02;16.00;63.00
81524;DHT22;70954;49.500;10.416;2023-09-08T06:15:28;16.00;63.10
81524;DHT22;70954;49.500;10.416;2023-09-08T06:17:53;16.10;63.10
81524;DHT22;70954;49.500;10.416;2023-09-08T06:20:19;16.10;63.20
81524;DHT22;70954;49.500;10.416;2023-09-08T06:22:44;16.10;63.30
81524;DHT22;70954;49.500;10.416;2023-09-08T06:25:10;16.20;63.40
81524;DHT22;70954;49.500;10.416;2023-09-08T06:27:35;16.20;63.50
81524;DHT22;70954;49.500;10.416;2023-09-08T06:30:01;16.30;63.60
81524;DHT22;70954;49.500;10.416;2023-09-08T06:32:26;16.40;63.70
81524;DHT22;70954;49.500;10.416;2023-09-08T06:34:52;16.40;63.70
81524;DHT22;70954;49.500;10.416;2023-09-08T06:37:17;16.50;63.80
81524;DHT22;70954;49.500;10.416;2023-09-08T06:39:42;16.60;63.90
81524;DHT22;70954;49.500;10.416;2023-09-08T06:42:08;16.70;63.80
81524;DHT22;70954;49.500;10.416;2023-09-08T06:44:33;16.80;63.80
81524;DHT22;70954;49.500;10.416;2023-09-08T06:46:59;16.80;63.90
81524;DHT22;70954;49.500;10.416;2023-09-08T06:49:24;16.90;63.90
81524;DHT22;70954;49.500;10.416;2023-09-08T06:51:50;17.00;63.90
81524;DHT22;70954;49.500;10.416;2023-09-08T06:54:15;17.10;63.90
81524;DHT22;70954;49.500;10.416;2023-09-08T06:56:40;17.20;63.90
81524;DHT22;70954;49.500;10.416;2023-09-08T06:59:06;17.30;63.80
81524;DHT22;70954;49.500;10.416;2023-09-08T07:01:31;17.40;63.80
81524;DHT22;70954;49.500;10.416;2023-09-08T07:03:57;17.50;63.90
81524;DHT22;70954;49.500;10.416;2023-09-08T07:06:22;17.60;63.90
81524;DHT22;70954;49.500;10.416;2023-09-08T07:08:49;17.80;64.00
81524;DHT22;70954;49.500;10.416;2023-09-08T07:11:14;17.80;63.90
81524;DHT22;70954;49.500;10.416;2023-09-08T07:13:39;18.00;63.90
81524;DHT22;70954;49.500;10.416;2023-09-08T07:16:05;18.00;63.90
81524;DHT22;70954;49.500;10.416;2023-09-08T07:18:30;18.20;63.80
81524;DHT22;70954;49.500;10.416;2023-09-08T07:20:56;18.30;63.70
81524;DHT22;70954;49.500;10.416;2023-09-08T07:23:21;18.40;63.70
81524;DHT22;70954;49.500;10.416;2023-09-08T07:25:48;18.50;63.50
81524;DHT22;70954;49.500;10.416;2023-09-08T07:28:14;18.70;63.30
81524;DHT22;70954;49.500;10.416;2023-09-08T07:30:39;18.80;63.20
81524;DHT22;70954;49.500;10.416;2023-09-08T07:33:05;18.90;63.10
81524;DHT22;70954;49.500;10.416;2023-09-08T07:35:31;19.00;63.00
81524;DHT22;70954;49.500;10.416;2023-09-08T07:37:56;19.20;62.90
81524;DHT22;70954;49.500;10.416;2023-09-08T07:40:21;19.30;62.70
81524;DHT22;70954;49.500;10.416;2023-09-08T07:42:47;19.40;62.50
81524;DHT22;70954;49.500;10.416;2023-09-08T07:45:12;19.50;62.30
81524;DHT22;70954;49.500;10.416;2023-09-08T07:47:38;19.70;62.10
81524;DHT22;70954;49.500;10.416;2023-09-08T07:50:18;19.70;62.00
81524;DHT22;70954;49.500;10.416;2023-09-08T07:52:44;19.90;61.50
81524;DHT22;70954;49.500;10.416;2023-09-08T07:55:09;20.00;61.60
81524;DHT22;70954;49.500;10.416;2023-09-08T07:57:35;20.10;61.50
81524;DHT22;70954;49.500;10.416;2023-09-08T08:00:01;20.30;61.40
81524;DHT22;70954;49.500;10.416;2023-09-08T08:02:26;20.50;61.30
81524;DHT22;70954;49.500;10.416;2023-09-08T08:04:52;20.50;61.20
81524;DHT22;70954;49.500;10.416;2023-09-08T08:07:17;20.70;60.80
81524;DHT22;70954;49.500;10.416;2023-09-08T08:09:42;20.80;60.60
81524;DHT22;70954;49.500;10.416;2023-09-08T08:12:08;20.90;60.40
81524;DHT22;70954;49.500;10.416;2023-09-08T08:14:33;21.10;60.30
81524;DHT22;70954;49.500;10.416;2023-09-08T08:16:59;21.10;60.10
81524;DHT22;70954;49.500;10.416;2023-09-08T08:19:24;21.30;60.00
81524;DHT22;70954;49.500;10.416;2023-09-08T08:21:50;21.50;59.80
81524;DHT22;70954;49.500;10.416;2023-09-08T08:24:15;21.50;59.70
81524;DHT22;70954;49.500;10.416;2023-09-08T08:26:41;21.70;59.30
81524;DHT22;70954;49.500;10.416;2023-09-08T08:29:06;21.80;59.00
81524;DHT22;70954;49.500;10.416;2023-09-08T08:31:32;21.90;58.90
81524;DHT22;70954;49.500;10.416;2023-09-08T08:33:57;22.10;58.60
81524;DHT22;70954;49.500;10.416;2023-09-08T08:36:22;22.20;58.30
81524;DHT22;70954;49.500;10.416;2023-09-08T08:38:48;22.30;58.10
81524;DHT22;70954;49.500;10.416;2023-09-08T08:41:13;22.50;57.90
81524;DHT22;70954;49.500;10.416;2023-09-08T08:43:39;22.60;57.50
81524;DHT22;70954;49.500;10.416;2023-09-08T08:46:05;22.70;57.10
81524;DHT22;70954;49.500;10.416;2023-09-08T08:48:32;22.90;56.90
81524;DHT22;70954;49.500;10.416;2023-09-08T08:50:59;23.00;56.50
81524;DHT22;70954;49.500;10.416;2023-09-08T08:53:25;23.10;56.20
81524;DHT22;70954;49.500;10.416;2023-09-08T08:55:55;23.20;55.90
81524;DHT22;70954;49.500;10.416;2023-09-08T08:58:21;23.40;55.70
81524;DHT22;70954;49.500;10.416;2023-09-08T09:00:47;23.50;55.70
81524;DHT22;70954;49.500;10.416;2023-09-08T09:03:13;23.60;55.50
81524;DHT22;70954;49.500;10.416;2023-09-08T09:05:39;23.70;55.10
81524;DHT22;70954;49.500;10.416;2023-09-08T09:08:06;23.80;54.90
81524;DHT22;70954;49.500;10.416;2023-09-08T09:10:31;23.90;54.60
81524;DHT22;70954;49.500;10.416;2023-09-08T09:12:57;24.00;54.30
81524;DHT22;70954;49.500;10.416;2023-09-08T09:15:30;24.20;54.10
81524;DHT22;70954;49.500;10.416;2023-09-08T09:18:06;24.20;53.40
81524;DHT22;70954;49.500;10.416;2023-09-08T09:20:32;24.40;53.20
81524;DHT22;70954;49.500;10.416;2023-09-08T09:22:57;24.40;53.40
81524;DHT22;70954;49.500;10.416;2023-09-08T09:25:28;24.50;53.00
81524;DHT22;70954;49.500;10.416;2023-09-08T09:27:55;24.60;52.70
81524;DHT22;70954;49.500;10.416;2023-09-08T09:30:22;24.70;52.70
81524;DHT22;70954;49.500;10.416;2023-09-08T09:32:48;24.80;52.30
81524;DHT22;70954;49.500;10.416;2023-09-08T09:35:14;24.90;52.20
81524;DHT22;70954;49.500;10.416;2023-09-08T09:37:40;25.00;51.90
81524;DHT22;70954;49.500;10.416;2023-09-08T09:40:07;25.00;51.70
81524;DHT22;70954;49.500;10.416;2023-09-08T09:42:32;25.00;51.50
81524;DHT22;70954;49.500;10.416;2023-09-08T09:45:00;25.20;51.20
81524;DHT22;70954;49.500;10.416;2023-09-08T09:47:26;25.30;50.90
81524;DHT22;70954;49.500;10.416;2023-09-08T09:49:52;25.30;50.70
81524;DHT22;70954;49.500;10.416;2023-09-08T09:52:22;25.40;50.40
81524;DHT22;70954;49.500;10.416;2023-09-08T09:54:48;25.40;50.10
81524;DHT22;70954;49.500;10.416;2023-09-08T09:57:14;25.50;50.10
81524;DHT22;70954;49.500;10.416;2023-09-08T10:00:00;25.60;50.10
81524;DHT22;70954;49.500;10.416;2023-09-08T10:02:27;25.60;49.30
81524;DHT22;70954;49.500;10.416;2023-09-08T10:04:53;25.60;50.00
81524;DHT22;70954;49.500;10.416;2023-09-08T10:07:18;25.70;49.80
81524;DHT22;70954;49.500;10.416;2023-09-08T10:09:44;25.80;49.70
81524;DHT22;70954;49.500;10.416;2023-09-08T10:12:13;25.80;49.60
81524;DHT22;70954;49.500;10.416;2023-09-08T10:14:41;25.90;49.30
81524;DHT22;70954;49.500;10.416;2023-09-08T10:17:09;26.00;49.20
81524;DHT22;70954;49.500;10.416;2023-09-08T10:19:37;26.00;49.00
81524;DHT22;70954;49.500;10.416;2023-09-08T10:22:03;26.00;48.90
81524;DHT22;70954;49.500;10.416;2023-09-08T10:24:35;26.10;48.70
81524;DHT22;70954;49.500;10.416;2023-09-08T10:27:10;26.10;48.20
81524;DHT22;70954;49.500;10.416;2023-09-08T10:29:37;26.20;48.00
81524;DHT22;70954;49.500;10.416;2023-09-08T10:32:03;26.20;48.20
81524;DHT22;70954;49.500;10.416;2023-09-08T10:34:31;26.30;48.00
81524;DHT22;70954;49.500;10.416;2023-09-08T10:36:57;26.40;47.80
81524;DHT22;70954;49.500;10.416;2023-09-08T10:39:32;26.40;47.70
81524;DHT22;70954;49.500;10.416;2023-09-08T10:47:14;26.50;46.70
81524;DHT22;70954;49.500;10.416;2023-09-08T10:49:40;26.50;47.00
81524;DHT22;70954;49.500;10.416;2023-09-08T10:52:11;26.60;46.80
81524;DHT22;70954;49.500;10.416;2023-09-08T10:54:41;26.60;46.50
81524;DHT22;70954;49.500;10.416;2023-09-08T10:57:13;26.60;46.50
81524;DHT22;70954;49.500;10.416;2023-09-08T10:59:38;26.70;46.40
81524;DHT22;70954;49.500;10.416;2023-09-08T11:02:04;26.70;46.50
81524;DHT22;70954;49.500;10.416;2023-09-08T11:04:30;26.70;46.30
81524;DHT22;70954;49.500;10.416;2023-09-08T11:06:58;26.80;46.20
81524;DHT22;70954;49.500;10.416;2023-09-08T11:09:23;26.80;45.90
81524;DHT22;70954;49.500;10.416;2023-09-08T11:11:50;26.90;45.90
81524;DHT22;70954;49.500;10.416;2023-09-08T11:14:15;26.90;45.80
81524;DHT22;70954;49.500;10.416;2023-09-08T11:16:41;26.90;45.70
81524;DHT22;70954;49.500;10.416;2023-09-08T11:19:06;27.00;45.50
81524;DHT22;70954;49.500;10.416;2023-09-08T11:21:32;27.00;45.60
81524;DHT22;70954;49.500;10.416;2023-09-08T11:23:57;27.00;45.50
81524;DHT22;70954;49.500;10.416;2023-09-08T11:26:24;27.10;45.40
81524;DHT22;70954;49.500;10.416;2023-09-08T11:28:49;27.10;45.30
81524;DHT22;70954;49.500;10.416;2023-09-08T11:31:16;27.10;45.30
81524;DHT22;70954;49.500;10.416;2023-09-08T11:33:41;27.20;45.20
81524;DHT22;70954;49.500;10.416;2023-09-08T11:36:13;27.20;45.20
81524;DHT22;70954;49.500;10.416;2023-09-08T11:38:39;27.20;44.80
81524;DHT22;70954;49.500;10.416;2023-09-08T11:41:04;27.30;45.10
81524;DHT22;70954;49.500;10.416;2023-09-08T11:43:30;27.30;45.00
81524;DHT22;70954;49.500;10.416;2023-09-08T11:45:56;27.30;44.90
81524;DHT22;70954;49.500;10.416;2023-09-08T11:48:21;27.40;44.80
81524;DHT22;70954;49.500;10.416;2023-09-08T11:50:49;27.40;44.80
81524;DHT22;70954;49.500;10.416;2023-09-08T11:53:20;27.40;44.70
81524;DHT22;70954;49.500;10.416;2023-09-08T11:55:46;27.40;44.70
81524;DHT22;70954;49.500;10.416;2023-09-08T11:58:12;27.50;44.60
81524;DHT22;70954;49.500;10.416;2023-09-08T12:00:38;27.50;44.50
81524;DHT22;70954;49.500;10.416;2023-09-08T12:03:11;27.50;44.40
81524;DHT22;70954;49.500;10.416;2023-09-08T12:05:37;27.50;44.00
81524;DHT22;70954;49.500;10.416;2023-09-08T12:08:04;27.50;44.20
81524;DHT22;70954;49.500;10.416;2023-09-08T12:10:30;27.60;44.20
81524;DHT22;70954;49.500;10.416;2023-09-08T12:12:55;27.60;44.10
81524;DHT22;70954;49.500;10.416;2023-09-08T12:15:37;27.70;44.00
81524;DHT22;70954;49.500;10.416;2023-09-08T12:18:10;27.70;43.20
81524;DHT22;70954;49.500;10.416;2023-09-08T12:20:38;27.70;43.50
81524;DHT22;70954;49.500;10.416;2023-09-08T12:23:05;27.80;43.70
81524;DHT22;70954;49.500;10.416;2023-09-08T12:25:31;27.80;43.70
81524;DHT22;70954;49.500;10.416;2023-09-08T12:27:57;27.80;43.70
81524;DHT22;70954;49.500;10.416;2023-09-08T12:30:23;27.80;43.50
81524;DHT22;70954;49.500;10.416;2023-09-08T12:32:49;27.90;43.40
81524;DHT22;70954;49.500;10.416;2023-09-08T12:35:22;27.90;43.40
81524;DHT22;70954;49.500;10.416;2023-09-08T12:37:51;27.90;43.30
81524;DHT22;70954;49.500;10.416;2023-09-08T12:40:17;27.90;43.50
81524;DHT22;70954;49.500;10.416;2023-09-08T12:42:42;27.90;43.30
81524;DHT22;70954;49.500;10.416;2023-09-08T12:45:08;28.00;43.30
81524;DHT22;70954;49.500;10.416;2023-09-08T12:47:33;28.00;43.30
81524;DHT22;70954;49.500;10.416;2023-09-08T12:49:59;28.00;43.30
81524;DHT22;70954;49.500;10.416;2023-09-08T12:52:24;28.00;43.30
81524;DHT22;70954;49.500;10.416;2023-09-08T12:54:50;28.00;43.30
81524;DHT22;70954;49.500;10.416;2023-09-08T12:57:15;28.10;43.10
81524;DHT22;70954;49.500;10.416;2023-09-08T12:59:41;28.10;43.00
81524;DHT22;70954;49.500;10.416;2023-09-08T13:02:06;28.10;43.00
81524;DHT22;70954;49.500;10.416;2023-09-08T13:04:32;28.10;42.80
81524;DHT22;70954;49.500;10.416;2023-09-08T13:06:57;28.10;42.80
81524;DHT22;70954;49.500;10.416;2023-09-08T13:09:22;28.10;42.80
81524;DHT22;70954;49.500;10.416;2023-09-08T13:11:48;28.10;42.60
81524;DHT22;70954;49.500;10.416;2023-09-08T13:14:13;28.10;42.50
81524;DHT22;70954;49.500;10.416;2023-09-08T13:16:39;28.10;42.60
81524;DHT22;70954;49.500;10.416;2023-09-08T13:19:04;28.20;42.60
81524;DHT22;70954;49.500;10.416;2023-09-08T13:21:30;28.20;42.50
81524;DHT22;70954;49.500;10.416;2023-09-08T13:23:55;28.20;42.40
81524;DHT22;70954;49.500;10.416;2023-09-08T13:26:21;28.20;42.30
81524;DHT22;70954;49.500;10.416;2023-09-08T13:28:46;28.20;42.20
81524;DHT22;70954;49.500;10.416;2023-09-08T13:31:12;28.20;42.30
81524;DHT22;70954;49.500;10.416;2023-09-08T13:33:37;28.20;42.20
81524;DHT22;70954;49.500;10.416;2023-09-08T13:36:02;28.30;41.90
81524;DHT22;70954;49.500;10.416;2023-09-08T13:38:28;28.30;41.80
81524;DHT22;70954;49.500;10.416;2023-09-08T13:40:53;28.30;41.70
81524;DHT22;70954;49.500;10.416;2023-09-08T13:43:19;28.30;41.80
81524;DHT22;70954;49.500;10.416;2023-09-08T13:45:44;28.30;41.80
81524;DHT22;70954;49.500;10.416;2023-09-08T13:48:10;28.30;41.70
81524;DHT22;70954;49.500;10.416;2023-09-08T13:50:37;28.30;41.60
81524;DHT22;70954;49.500;10.416;2023-09-08T13:53:03;28.30;41.40
81524;DHT22;70954;49.500;10.416;2023-09-08T13:55:29;28.30;41.40
81524;DHT22;70954;49.500;10.416;2023-09-08T13:57:54;28.40;41.30
81524;DHT22;70954;49.500;10.416;2023-09-08T14:00:20;28.40;41.40
81524;DHT22;70954;49.500;10.416;2023-09-08T14:02:45;28.40;41.40
81524;DHT22;70954;49.500;10.416;2023-09-08T14:05:10;28.50;41.30
81524;DHT22;70954;49.500;10.416;2023-09-08T14:07:36;28.50;41.10
81524;DHT22;70954;49.500;10.416;2023-09-08T14:10:02;28.50;41.10
81524;DHT22;70954;49.500;10.416;2023-09-08T14:12:27;28.50;41.10
81524;DHT22;70954;49.500;10.416;2023-09-08T14:14:53;28.50;41.00
81524;DHT22;70954;49.500;10.416;2023-09-08T14:17:18;28.50;40.70
81524;DHT22;70954;49.500;10.416;2023-09-08T14:19:44;28.50;40.60
81524;DHT22;70954;49.500;10.416;2023-09-08T14:22:09;28.60;40.60
81524;DHT22;70954;49.500;10.416;2023-09-08T14:24:35;28.60;40.60
81524;DHT22;70954;49.500;10.416;2023-09-08T14:27:00;28.60;40.50
81524;DHT22;70954;49.500;10.416;2023-09-08T14:29:26;28.60;40.50
81524;DHT22;70954;49.500;10.416;2023-09-08T14:31:51;28.60;40.50
81524;DHT22;70954;49.500;10.416;2023-09-08T14:34:16;28.60;40.50
81524;DHT22;70954;49.500;10.416;2023-09-08T14:36:42;28.70;40.40
81524;DHT22;70954;49.500;10.416;2023-09-08T14:39:07;28.70;40.30
81524;DHT22;70954;49.500;10.416;2023-09-08T14:41:33;28.70;40.20
81524;DHT22;70954;49.500;10.416;2023-09-08T14:43:58;28.70;40.20
81524;DHT22;70954;49.500;10.416;2023-09-08T14:46:24;28.70;40.20
81524;DHT22;70954;49.500;10.416;2023-09-08T14:48:49;28.70;40.10
81524;DHT22;70954;49.500;10.416;2023-09-08T14:51:15;28.70;40.10
81524;DHT22;70954;49.500;10.416;2023-09-08T14:53:40;28.80;40.00
81524;DHT22;70954;49.500;10.416;2023-09-08T14:56:05;28.80;40.00
81524;DHT22;70954;49.500;10.416;2023-09-08T14:58:31;28.80;39.80
81524;DHT22;70954;49.500;10.416;2023-09-08T15:00:57;28.80;39.60
81524;DHT22;70954;49.500;10.416;2023-09-08T15:03:22;28.90;39.60
81524;DHT22;70954;49.500;10.416;2023-09-08T15:05:48;28.90;39.50
81524;DHT22;70954;49.500;10.416;2023-09-08T15:08:13;28.90;39.50
81524;DHT22;70954;49.500;10.416;2023-09-08T15:10:39;28.90;39.40
81524;DHT22;70954;49.500;10.416;2023-09-08T15:13:04;28.90;39.30
81524;DHT22;70954;49.500;10.416;2023-09-08T15:15:29;28.90;39.30
81524;DHT22;70954;49.500;10.416;2023-09-08T15:17:55;28.90;39.20